Time;durP1;ratioP1;P1;durP2;ratioP2;P2;SDS_P1;SDS_P2;PMS_P1;PMS_P2;Temp;Humidity;BMP_temperature;BMP_pressure;BME280_temperature;BME280_humidity;BME280_pressure;Samples;Min_cycle;Max_cycle;Signal;HPM_P1;HPM_P2
2022/01/22 00:01:07;;;;;;;59.17;55.27;;;;;;;5.54;100.00;103883.82;1998218;71;33197;-70
2022/01/22 00:06:54;;;;;;;62.07;57.87;;;;;;;5.61;100.00;103877.92;2004173;71;32745;-70
2022/01/22 00:13:06;;;;;;;60.37;56.27;;;;;;;5.53;100.00;103871.93;2018252;71;33360;-74
2022/01/22 00:18:32;;;;;;;60.90;56.80;;;;;;;5.41;100.00;103867.33;2018140;71;32802;-71
2022/01/22 00:24:16;;;;;;;63.17;58.93;;;;;;;5.18;100.00;103866.34;1998600;71;32848;-73
2022/01/22 00:30:01;;;;;;;64.07;59.47;;;;;;;4.98;100.00;103860.37;1998127;71;33393;-70
2022/01/22 00:35:47;;;;;;;62.77;58.47;;;;;;;4.78;100.00;103862.30;1999863;71;32882;-72
2022/01/22 00:41:31;;;;;;;62.30;58.00;;;;;;;4.84;100.00;103858.83;2005437;71;32789;-73
2022/01/22 00:47:15;;;;;;;63.47;59.20;;;;;;;4.76;100.00;103861.59;1994945;71;32816;-70
2022/01/22 00:53:00;;;;;;;63.77;59.37;;;;;;;4.46;100.00;103862.63;2014351;71;33433;-71
2022/01/22 00:58:49;;;;;;;62.23;57.77;;;;;;;4.58;100.00;103862.63;2012662;71;33432;-71
2022/01/22 01:04:36;;;;;;;63.13;58.83;;;;;;;4.56;100.00;103867.98;1994860;71;32737;-69
2022/01/22 01:10:21;;;;;;;62.30;58.00;;;;;;;4.69;100.00;103859.20;2003484;71;32802;-71
2022/01/22 01:16:17;;;;;;;62.57;58.10;;;;;;;4.77;100.00;103860.57;1996868;71;33327;-73
2022/01/22 01:34:11;;;;;;;61.60;57.27;;;;;;;4.55;100.00;103844.23;1994561;71;33272;-70
2022/01/22 01:40:00;;;;;;;61.80;57.50;;;;;;;4.69;100.00;103840.79;2011354;71;32837;-70
2022/01/22 01:45:42;;;;;;;62.90;58.60;;;;;;;4.59;100.00;103841.47;2005979;71;32737;-70
2022/01/22 01:51:27;;;;;;;62.50;58.20;;;;;;;4.58;100.00;103847.49;2007710;71;32830;-73
2022/01/22 01:57:38;;;;;;;63.33;59.17;;;;;;;4.82;100.00;103849.39;1991104;71;32747;-70
2022/01/22 02:03:20;;;;;;;63.73;59.53;;;;;;;4.58;100.00;103854.38;2005868;71;32760;-73
2022/01/22 02:09:07;;;;;;;64.53;59.83;;;;;;;4.46;100.00;103848.88;2009516;71;32851;-69
2022/01/22 02:26:56;;;;;;;61.77;57.40;;;;;;;4.18;100.00;103854.88;2007543;71;32740;-69
2022/01/22 02:33:04;;;;;;;62.73;58.33;;;;;;;4.28;100.00;103850.08;2000293;71;32746;-71
2022/01/22 02:38:52;;;;;;;65.13;60.63;;;;;;;4.48;100.00;103850.09;1991071;71;32852;-70
2022/01/22 02:44:33;;;;;;;63.17;58.83;;;;;;;4.65;100.00;103846.81;2012602;71;32880;-71
2022/01/22 02:50:21;;;;;;;63.07;58.67;;;;;;;4.59;100.00;103840.09;2009164;71;32806;-72
2022/01/22 02:56:06;;;;;;;64.23;59.87;;;;;;;4.69;100.00;103835.80;2004341;71;33341;-70
2022/01/22 03:01:51;;;;;;;63.83;59.23;;;;;;;4.40;100.00;103823.43;1998004;71;32855;-70
2022/01/22 03:07:36;;;;;;;64.83;60.27;;;;;;;4.41;100.00;103823.75;1991156;71;32836;-74
2022/01/22 03:19:57;;;;;;;62.37;58.17;;;;;;;4.83;100.00;103816.69;2005732;71;32920;-72
2022/01/22 03:31:37;;;;;;;66.27;61.87;;;;;;;4.86;100.00;103809.95;2010803;71;32796;-69
2022/01/22 03:37:22;;;;;;;63.10;58.63;;;;;;;5.06;100.00;103809.89;2002155;71;32782;-70
2022/01/22 03:43:06;;;;;;;64.77;60.37;;;;;;;5.05;100.00;103811.79;2014632;71;32816;-73
2022/01/22 03:48:51;;;;;;;65.70;61.20;;;;;;;5.03;100.00;103814.39;2003628;71;32921;-71
2022/01/22 03:54:36;;;;;;;65.07;60.57;;;;;;;5.01;100.00;103824.20;2007310;71;32865;-74
2022/01/22 04:00:21;;;;;;;65.87;61.50;;;;;;;5.17;100.00;103825.21;2005403;71;32830;-73
2022/01/22 04:06:32;;;;;;;64.40;60.10;;;;;;;5.40;100.00;103825.63;1993732;70;33380;-71
2022/01/22 04:12:00;;;;;;;62.00;57.93;;;;;;;5.38;100.00;103827.72;2014547;71;32901;-70
2022/01/22 04:29:48;;;;;;;62.83;58.57;;;;;;;5.34;100.00;103843.41;2014511;71;32800;-74
2022/01/22 04:35:33;;;;;;;62.90;58.80;;;;;;;5.28;100.00;103857.37;1994872;71;32736;-70
2022/01/22 04:41:17;;;;;;;64.60;60.30;;;;;;;5.30;100.00;103848.94;2002435;71;33280;-73
2022/01/22 04:47:14;;;;;;;62.37;58.10;;;;;;;5.43;100.00;103863.03;2007697;71;32746;-70
2022/01/22 04:58:56;;;;;;;60.97;56.90;;;;;;;5.28;100.00;103864.78;2003992;71;32806;-72
2022/01/22 05:04:41;;;;;;;60.70;56.57;;;;;;;5.33;100.00;103863.22;2002295;71;32823;-71
2022/01/22 05:10:26;;;;;;;61.20;57.20;;;;;;;5.70;100.00;103854.80;2013038;71;32840;-71
2022/01/22 05:16:10;;;;;;;62.80;58.60;;;;;;;5.38;100.00;103871.83;2003803;71;33345;-73
2022/01/22 05:21:58;;;;;;;62.90;58.80;;;;;;;5.39;100.00;103876.28;2011334;71;32788;-73
2022/01/22 05:27:55;;;;;;;62.63;58.43;;;;;;;5.28;100.00;103865.64;2005899;71;32818;-70
2022/01/22 05:39:37;;;;;;;61.37;57.07;;;;;;;5.32;100.00;103869.77;2009070;71;32952;-73
2022/01/22 05:45:23;;;;;;;60.37;56.27;;;;;;;5.37;100.00;103866.48;2003808;71;33301;-73
2022/01/22 05:51:08;;;;;;;58.40;54.50;;;;;;;5.72;100.00;103873.42;2005906;71;32837;-73
2022/01/22 06:02:54;;;;;;;58.33;54.53;;;;;;;5.74;100.00;103880.45;1996148;71;32898;-71
2022/01/22 06:08:45;;;;;;;58.97;54.97;;;;;;;5.94;100.00;103876.80;2014575;71;33276;-71
2022/01/22 06:14:25;;;;;;;59.07;55.17;;;;;;;5.95;100.00;103879.87;2014518;71;32858;-71
2022/01/22 06:20:13;;;;;;;60.50;56.53;;;;;;;5.85;100.00;103875.95;2014512;71;32906;-73
2022/01/22 06:26:00;;;;;;;58.53;54.70;;;;;;;5.89;100.00;103873.71;1996737;71;32876;-74
2022/01/22 06:31:43;;;;;;;60.77;56.77;;;;;;;6.05;100.00;103865.84;2016360;71;33299;-71
2022/01/22 06:37:27;;;;;;;63.80;59.60;;;;;;;5.93;100.00;103865.41;2005852;71;32823;-74
2022/01/22 06:43:12;;;;;;;60.83;56.83;;;;;;;5.93;100.00;103865.41;1996759;71;33192;-75
2022/01/22 06:48:56;;;;;;;65.80;61.47;;;;;;;6.07;100.00;103879.83;2005889;71;32742;-68
2022/01/22 06:54:42;;;;;;;61.20;56.77;;;;;;;5.74;100.00;103880.98;2018199;71;32782;-71
2022/01/22 07:00:26;;;;;;;60.83;56.73;;;;;;;6.04;100.00;103874.64;2010689;71;32835;-71
2022/01/22 07:06:11;;;;;;;61.43;57.30;;;;;;;6.16;100.00;103873.19;2003666;71;33376;-72
2022/01/22 07:11:55;;;;;;;62.80;58.50;;;;;;;5.90;100.00;103869.92;2017967;71;32869;-72
2022/01/22 07:17:40;;;;;;;63.63;59.53;;;;;;;5.91;100.00;103872.99;2014971;71;33409;-69
2022/01/22 07:23:55;;;;;;;61.90;57.63;;;;;;;6.22;100.00;103872.47;2007711;71;33277;-67
2022/01/22 07:29:18;;;;;;;60.63;56.63;;;;;;;6.27;100.00;103878.31;2014599;71;32982;-69
2022/01/22 07:35:03;;;;;;;62.63;58.50;;;;;;;6.23;100.00;103883.86;2003741;71;32790;-70
2022/01/22 07:40:48;;;;;;;62.27;58.17;;;;;;;6.23;100.00;103883.86;2009259;71;33290;-69
2022/01/22 07:46:32;;;;;;;63.70;59.37;;;;;;;6.10;100.00;103880.83;2013041;71;33291;-71
2022/01/22 07:52:16;;;;;;;61.27;57.27;;;;;;;6.26;100.00;103875.72;2014499;71;33349;-70
2022/01/22 07:58:02;;;;;;;59.97;56.10;;;;;;;6.32;100.00;103869.48;2014423;71;32807;-69
2022/01/22 08:03:50;;;;;;;59.50;55.60;;;;;;;6.39;100.00;103866.31;1998179;71;33388;-76
2022/01/22 08:09:34;;;;;;;62.07;58.23;;;;;;;6.54;100.00;103867.25;2005939;71;33218;-70
2022/01/22 08:15:21;;;;;;;63.03;58.87;;;;;;;6.59;100.00;103862.00;2012843;71;32838;-68
2022/01/22 08:21:05;;;;;;;59.43;55.63;;;;;;;6.57;100.00;103874.29;2014731;71;33391;-74
2022/01/22 08:27:03;;;;;;;62.57;58.47;;;;;;;6.60;100.00;103870.63;1994855;71;32865;-71
2022/01/22 08:32:57;;;;;;;63.47;59.47;;;;;;;6.59;100.00;103852.88;2008970;71;32802;-69
2022/01/22 08:38:25;;;;;;;61.00;57.20;;;;;;;6.51;100.00;103840.49;2014660;71;33316;-68
2022/01/22 08:44:11;;;;;;;63.13;59.33;;;;;;;6.70;100.00;103843.63;2009734;71;33218;-71
2022/01/22 08:49:55;;;;;;;61.97;58.07;;;;;;;6.79;100.00;103852.69;2010858;71;32861;-71
2022/01/22 08:55:39;;;;;;;65.17;61.23;;;;;;;6.89;100.00;103852.44;2014841;71;32883;-75
2022/01/22 09:01:24;;;;;;;62.77;58.97;;;;;;;6.85;100.00;103849.16;2013252;71;32874;-70
2022/01/22 09:07:10;;;;;;;60.73;57.03;;;;;;;6.84;100.00;103859.39;1999747;71;33352;-70
2022/01/22 09:12:54;;;;;;;62.20;58.40;;;;;;;6.94;100.00;103863.77;2000195;71;33400;-72
2022/01/22 09:18:39;;;;;;;64.17;60.27;;;;;;;6.95;100.00;103878.78;2014303;71;32871;-75
2022/01/22 09:24:23;;;;;;;60.10;56.50;;;;;;;6.98;100.00;103872.88;2006420;71;32817;-75
2022/01/22 09:30:10;;;;;;;63.33;59.20;;;;;;;6.91;100.00;103870.53;2001995;71;33282;-74
2022/01/22 09:35:54;;;;;;;60.70;57.10;;;;;;;7.03;100.00;103868.16;2010863;71;32875;-71
2022/01/22 09:41:38;;;;;;;58.07;54.27;;;;;;;7.11;100.00;103870.33;2016188;71;32808;-73
2022/01/22 09:47:23;;;;;;;59.80;56.03;;;;;;;7.30;100.00;103875.84;2001805;71;32910;-69
2022/01/22 09:53:07;;;;;;;61.23;57.37;;;;;;;7.38;100.00;103871.59;1998660;71;32883;-73
2022/01/22 09:58:52;;;;;;;58.83;55.17;;;;;;;7.37;100.00;103883.70;2003682;71;33312;-69
2022/01/22 10:04:40;;;;;;;58.07;54.57;;;;;;;7.48;100.00;103879.09;2000381;71;32953;-75
2022/01/22 10:10:35;;;;;;;58.53;54.97;;;;;;;7.49;100.00;103877.16;2003728;71;32849;-74
2022/01/22 10:16:22;;;;;;;60.53;56.80;;;;;;;7.52;100.00;103876.28;2006196;71;33354;-74
2022/01/22 10:22:29;;;;;;;55.83;52.43;;;;;;;7.56;100.00;103872.59;2016417;71;32876;-73
2022/01/22 10:28:19;;;;;;;61.33;57.57;;;;;;;7.63;100.00;103864.71;1990989;71;32820;-77
2022/01/22 10:34:09;;;;;;;58.80;55.20;;;;;;;7.65;100.00;103870.93;2014915;71;32855;-76
2022/01/22 10:39:53;;;;;;;58.63;55.03;;;;;;;7.70;100.00;103878.10;2004993;71;32875;-69
2022/01/22 10:45:41;;;;;;;58.13;54.27;;;;;;;7.69;100.00;103865.86;2008644;71;33342;-69
2022/01/22 10:51:34;;;;;;;61.93;57.83;;;;;;;7.54;100.00;103853.41;1994480;71;32738;-68
2022/01/22 10:57:23;;;;;;;59.13;55.33;;;;;;;7.69;100.00;103857.56;2003869;71;32920;-74
2022/01/22 11:03:26;;;;;;;59.43;55.50;;;;;;;7.55;100.00;103866.72;1987899;71;32842;-76
2022/01/22 11:09:11;;;;;;;59.17;55.40;;;;;;;7.65;100.00;103857.09;1995054;71;32754;-75
2022/01/22 11:14:56;;;;;;;54.60;51.20;;;;;;;7.72;100.00;103850.25;2014847;70;33468;-77
2022/01/22 11:20:41;;;;;;;56.07;52.57;;;;;;;7.82;100.00;103848.57;2018490;71;32833;-73
2022/01/22 11:26:26;;;;;;;57.73;54.13;;;;;;;7.74;100.00;103848.16;2010643;71;32936;-76
2022/01/22 11:32:15;;;;;;;56.87;53.27;;;;;;;7.76;100.00;103841.38;1996424;71;32887;-68
2022/01/22 11:38:03;;;;;;;57.63;53.93;;;;;;;7.68;100.00;103835.95;1998977;71;32801;-76
2022/01/22 11:44:06;;;;;;;55.97;52.17;;;;;;;7.67;100.00;103839.76;2008936;71;33291;-75
2022/01/22 11:50:08;;;;;;;57.37;53.77;;;;;;;7.71;100.00;103830.02;2011065;70;32866;-68
2022/01/22 11:56:17;;;;;;;56.70;53.10;;;;;;;7.80;100.00;103822.46;2003335;71;32908;-77
2022/01/22 12:02:35;;;;;;;57.13;53.50;;;;;;;7.79;100.00;103834.05;2007216;71;32849;-75
2022/01/22 12:08:23;;;;;;;57.87;54.03;;;;;;;7.66;100.00;103826.97;2006881;71;32802;-68
2022/01/22 12:20:31;;;;;;;58.37;54.63;;;;;;;7.60;100.00;103841.59;2014369;71;33449;-75
2022/01/22 12:26:07;;;;;;;58.57;55.00;;;;;;;7.48;100.00;103821.52;2012978;71;32761;-75
2022/01/22 12:32:34;;;;;;;56.67;53.17;;;;;;;7.62;100.00;103834.46;2004426;71;33032;-75
2022/01/22 12:38:32;;;;;;;57.90;54.27;;;;;;;7.45;100.00;103837.96;2000805;70;32814;-74
2022/01/22 12:44:28;;;;;;;59.30;55.43;;;;;;;7.49;100.00;103842.06;2006099;71;32742;-71
2022/01/22 12:50:13;;;;;;;59.60;55.70;;;;;;;7.49;100.00;103838.44;2015980;71;32824;-68
2022/01/22 13:01:51;;;;;;;57.63;53.93;;;;;;;7.45;100.00;103855.94;1995238;71;32918;-73
2022/01/22 13:07:42;;;;;;;56.27;52.77;;;;;;;7.36;100.00;103854.31;2004097;71;32862;-74
2022/01/22 13:13:27;;;;;;;58.47;54.67;;;;;;;7.31;100.00;103852.67;2000260;71;33307;-74
2022/01/22 13:19:19;;;;;;;58.03;54.47;;;;;;;7.38;100.00;103847.23;2016174;71;32939;-75
2022/01/22 13:25:11;;;;;;;54.57;51.17;;;;;;;7.42;100.00;103850.80;2014080;71;32825;-69
2022/01/22 13:31:02;;;;;;;55.63;52.10;;;;;;;7.40;100.00;103849.29;2007449;71;32751;-69
2022/01/22 13:36:53;;;;;;;54.93;51.57;;;;;;;7.43;100.00;103847.00;2017981;71;33307;-76
2022/01/22 13:48:43;;;;;;;57.27;53.57;;;;;;;7.52;100.00;103829.77;2006029;71;32739;-71
2022/01/22 13:54:33;;;;;;;57.20;53.37;;;;;;;7.57;100.00;103822.59;2009615;71;32879;-73
2022/01/22 14:00:22;;;;;;;59.17;55.47;;;;;;;7.54;100.00;103829.03;1998004;71;32877;-71
2022/01/22 14:06:09;;;;;;;54.30;50.73;;;;;;;7.49;100.00;103831.00;2016177;71;32865;-73
2022/01/22 14:12:11;;;;;;;56.03;52.63;;;;;;;7.56;100.00;103826.95;1996646;71;32803;-71
2022/01/22 14:18:19;;;;;;;55.70;52.30;;;;;;;7.61;100.00;103814.27;2003825;71;32812;-71
2022/01/22 14:24:10;;;;;;;54.87;51.47;;;;;;;7.71;100.00;103812.03;2005591;71;32823;-70
2022/01/22 14:29:57;;;;;;;52.47;49.13;;;;;;;7.70;100.00;103817.23;1991074;71;33241;-72
2022/01/22 14:35:42;;;;;;;51.00;47.63;;;;;;;7.72;100.00;103812.38;1991034;71;33263;-70
2022/01/22 14:47:59;;;;;;;50.33;47.23;;;;;;;7.80;100.00;103804.47;2003376;71;32870;-71
2022/01/22 14:53:44;;;;;;;51.83;48.53;;;;;;;7.72;100.00;103793.00;2009435;71;32984;-75
2022/01/22 14:59:35;;;;;;;47.80;44.93;;;;;;;7.69;100.00;103794.78;1991487;71;32773;-73
2022/01/22 15:05:20;;;;;;;51.87;48.47;;;;;;;7.67;100.00;103772.49;2014539;71;32864;-72
2022/01/22 15:11:05;;;;;;;50.53;47.53;;;;;;;7.66;100.00;103767.48;2006889;71;32962;-72
2022/01/22 15:17:14;;;;;;;50.40;47.40;;;;;;;7.66;100.00;103766.62;1994577;71;32867;-70
2022/01/22 15:22:39;;;;;;;49.13;46.23;;;;;;;7.77;100.00;103762.84;1996277;71;32873;-70
2022/01/22 15:28:31;;;;;;;50.57;47.57;;;;;;;7.74;100.00;103765.15;2007465;71;33259;-70
2022/01/22 15:34:14;;;;;;;51.53;48.40;;;;;;;7.75;100.00;103760.78;2007238;71;33344;-73
2022/01/22 15:39:58;;;;;;;51.33;48.13;;;;;;;7.83;100.00;103761.73;2014178;71;32834;-74
2022/01/22 15:45:42;;;;;;;53.77;50.23;;;;;;;7.75;100.00;103769.08;2000239;71;32940;-73
2022/01/22 15:51:27;;;;;;;52.47;49.07;;;;;;;7.77;100.00;103772.52;1994130;71;32833;-72
2022/01/22 15:57:13;;;;;;;50.90;47.63;;;;;;;7.77;100.00;103765.61;2008685;71;32963;-72
2022/01/22 16:03:02;;;;;;;51.63;48.23;;;;;;;7.81;100.00;103772.13;2015829;71;32919;-70
2022/01/22 16:08:44;;;;;;;49.67;46.60;;;;;;;7.81;100.00;103766.06;2008809;71;33377;-72
2022/01/22 16:14:29;;;;;;;52.07;48.77;;;;;;;7.79;100.00;103766.78;2007120;71;33313;-70
2022/01/22 16:20:14;;;;;;;55.10;51.70;;;;;;;7.74;100.00;103774.28;2003886;71;33221;-71
2022/01/22 16:25:59;;;;;;;52.07;48.83;;;;;;;7.73;100.00;103773.97;2005750;71;32752;-72
2022/01/22 16:31:45;;;;;;;55.83;52.33;;;;;;;7.73;100.00;103771.20;1998248;71;32928;-72
2022/01/22 16:37:29;;;;;;;61.30;57.17;;;;;;;7.50;100.00;103787.59;2008934;71;33346;-72
2022/01/22 16:43:14;;;;;;;54.80;51.50;;;;;;;7.31;100.00;103783.02;2001851;71;33294;-70
2022/01/22 16:55:04;;;;;;;58.63;54.83;;;;;;;7.43;100.00;103783.91;2005968;71;33273;-71
2022/01/22 17:00:57;;;;;;;56.80;53.10;;;;;;;7.46;100.00;103790.42;2003410;71;32918;-79
2022/01/22 17:06:33;;;;;;;51.67;48.37;;;;;;;7.56;100.00;103788.22;1998089;71;32818;-73
2022/01/22 17:18:22;;;;;;;52.33;48.83;;;;;;;7.64;100.00;103794.50;2012873;71;32816;-72
2022/01/22 17:24:08;;;;;;;57.27;53.60;;;;;;;7.60;100.00;103782.63;2014307;71;32891;-71
2022/01/22 17:29:53;;;;;;;55.97;52.53;;;;;;;7.63;100.00;103780.33;2016385;71;33314;-74
2022/01/22 17:35:40;;;;;;;55.40;51.67;;;;;;;7.62;100.00;103777.75;2002358;71;33345;-74
2022/01/22 17:41:26;;;;;;;56.57;52.80;;;;;;;7.56;100.00;103779.92;2007928;71;32741;-68
2022/01/22 17:47:10;;;;;;;56.13;52.33;;;;;;;7.57;100.00;103789.95;2018715;70;33335;-76
2022/01/22 17:52:54;;;;;;;60.80;57.00;;;;;;;7.70;100.00;103790.94;2014334;71;32916;-71
2022/01/22 17:58:39;;;;;;;63.00;58.73;;;;;;;7.38;100.00;103791.91;2016323;71;32794;-73
2022/01/22 18:04:24;;;;;;;56.30;52.63;;;;;;;7.52;100.00;103794.67;1916046;72;33215;-75
2022/01/22 18:10:10;;;;;;;60.67;56.50;;;;;;;7.58;100.00;103778.66;2018396;71;32814;-71
2022/01/22 18:15:57;;;;;;;59.17;55.17;;;;;;;7.28;100.00;103787.53;1991708;71;32736;-72
2022/01/22 18:21:42;;;;;;;57.07;53.43;;;;;;;7.73;100.00;103789.72;2000531;70;32771;-76
2022/01/22 18:27:28;;;;;;;63.57;59.47;;;;;;;7.52;100.00;103789.66;2011137;70;32893;-75
2022/01/22 18:33:13;;;;;;;82.97;75.67;;;;;;;7.40;100.00;103785.68;2016442;71;32813;-70
2022/01/22 18:38:58;;;;;;;66.37;61.63;;;;;;;7.30;100.00;103788.21;2004214;71;32787;-79
2022/01/22 18:44:43;;;;;;;70.80;66.00;;;;;;;7.20;100.00;103793.68;2011004;71;33341;-70
2022/01/22 18:50:28;;;;;;;69.10;64.13;;;;;;;7.01;100.00;103792.89;2016592;71;33296;-73
2022/01/22 18:56:12;;;;;;;70.33;65.43;;;;;;;6.95;100.00;103787.58;1994815;71;32781;-71
2022/01/22 19:01:56;;;;;;;68.13;63.43;;;;;;;6.90;100.00;103785.91;2016733;71;32803;-71
2022/01/22 19:07:41;;;;;;;71.73;66.53;;;;;;;7.15;100.00;103781.81;2010893;71;32834;-70
2022/01/22 19:13:27;;;;;;;68.83;63.77;;;;;;;6.92;100.00;103778.30;1991168;71;32862;-70
2022/01/22 19:19:12;;;;;;;67.37;62.40;;;;;;;7.01;100.00;103776.30;2004549;71;33297;-72
2022/01/22 19:24:59;;;;;;;69.77;64.43;;;;;;;6.74;100.00;103774.52;2014642;71;32871;-72
2022/01/22 19:30:46;;;;;;;67.90;62.70;;;;;;;6.80;100.00;103788.11;2018223;71;32941;-71
2022/01/22 19:36:33;;;;;;;68.10;62.83;;;;;;;6.91;100.00;103782.63;2004162;71;32857;-72
2022/01/22 19:42:25;;;;;;;71.50;66.47;;;;;;;6.74;100.00;103785.56;2009055;71;33370;-70
2022/01/22 19:48:05;;;;;;;69.33;64.23;;;;;;;6.76;100.00;103788.15;2012917;71;32907;-71
2022/01/22 19:53:51;;;;;;;63.20;58.43;;;;;;;7.33;100.00;103791.11;2007507;71;32923;-74
2022/01/22 19:59:37;;;;;;;68.13;63.50;;;;;;;7.10;100.00;103793.13;2007502;71;32936;-74
2022/01/22 20:05:23;;;;;;;71.20;66.30;;;;;;;6.88;100.00;103800.45;2011525;71;32767;-75
2022/01/22 20:11:08;;;;;;;73.73;68.40;;;;;;;7.11;100.00;103803.98;2006017;71;32849;-72
2022/01/22 20:16:52;;;;;;;71.27;66.03;;;;;;;7.02;100.00;103802.87;2012887;71;32899;-72
2022/01/22 20:22:36;;;;;;;72.70;67.30;;;;;;;6.92;100.00;103811.98;1995088;70;33411;-73
2022/01/22 20:28:23;;;;;;;71.37;66.07;;;;;;;7.21;100.00;103814.24;2011578;71;33241;-73
2022/01/22 20:34:08;;;;;;;73.13;67.67;;;;;;;7.44;100.00;103811.38;2014558;71;32834;-70
2022/01/22 20:39:54;;;;;;;72.03;66.80;;;;;;;7.61;100.00;103810.12;2011474;71;32776;-69
2022/01/22 20:45:39;;;;;;;73.33;67.93;;;;;;;7.23;100.00;103805.21;2004283;71;32786;-72
2022/01/22 20:51:24;;;;;;;76.93;71.03;;;;;;;7.09;100.00;103808.86;2013299;71;32766;-73
2022/01/22 20:57:10;;;;;;;78.07;72.43;;;;;;;6.96;100.00;103811.42;2004026;71;32846;-71
2022/01/22 21:02:55;;;;;;;75.73;70.37;;;;;;;6.97;100.00;103815.05;2013267;71;32770;-69
2022/01/22 21:08:40;;;;;;;78.10;72.07;;;;;;;6.92;100.00;103815.61;2000051;71;32842;-69
2022/01/22 21:14:25;;;;;;;75.33;69.70;;;;;;;6.93;100.00;103826.14;2007495;71;32842;-72
2022/01/22 21:20:12;;;;;;;76.43;70.67;;;;;;;6.87;100.00;103830.51;1995038;71;32837;-74
2022/01/22 21:25:56;;;;;;;76.17;70.27;;;;;;;6.90;100.00;103832.89;2016502;71;32891;-71
2022/01/22 21:31:41;;;;;;;78.33;72.37;;;;;;;6.92;100.00;103828.56;1999864;71;32863;-72
2022/01/22 21:37:57;;;;;;;83.47;77.27;;;;;;;6.96;100.00;103822.47;2009151;71;33354;-71
2022/01/22 21:43:33;;;;;;;76.47;71.27;;;;;;;7.25;100.00;103815.57;2006070;71;32762;-73
2022/01/22 21:49:17;;;;;;;81.87;76.03;;;;;;;7.17;100.00;103810.66;2016661;71;32829;-72
2022/01/22 21:55:02;;;;;;;84.03;78.03;;;;;;;7.00;100.00;103807.75;1997698;70;33271;-73
2022/01/22 22:00:46;;;;;;;79.73;74.07;;;;;;;6.93;100.00;103810.39;2018310;71;33028;-72
2022/01/22 22:06:29;;;;;;;79.27;73.77;;;;;;;7.10;100.00;103807.78;2002440;71;32763;-73
2022/01/22 22:12:15;;;;;;;80.20;74.77;;;;;;;7.01;100.00;103804.80;2001881;71;32902;-71
2022/01/22 22:18:00;;;;;;;78.33;72.97;;;;;;;6.86;100.00;103814.45;2006172;71;33251;-71
2022/01/22 22:23:45;;;;;;;80.10;74.73;;;;;;;6.88;100.00;103818.41;2012750;71;32803;-72
2022/01/22 22:29:30;;;;;;;81.77;76.40;;;;;;;6.99;100.00;103818.45;2007411;71;32879;-73
2022/01/22 22:35:14;;;;;;;81.00;75.70;;;;;;;7.09;100.00;103819.05;2005429;71;33311;-72
2022/01/22 22:41:02;;;;;;;79.27;74.00;;;;;;;6.92;100.00;103819.75;1991228;71;32761;-72
2022/01/22 22:46:45;;;;;;;79.83;74.73;;;;;;;7.01;100.00;103808.09;2003858;71;32933;-72
2022/01/22 22:52:29;;;;;;;79.13;74.03;;;;;;;7.27;100.00;103796.04;2016392;71;33378;-71
2022/01/22 22:58:13;;;;;;;78.47;73.47;;;;;;;6.88;100.00;103810.13;2012895;71;32904;-71
2022/01/22 23:03:59;;;;;;;78.63;73.60;;;;;;;6.81;100.00;103816.91;1956895;71;32972;-72
2022/01/22 23:09:43;;;;;;;74.87;69.87;;;;;;;6.90;100.00;103823.21;2012903;71;32830;-72
2022/01/22 23:15:28;;;;;;;73.70;68.97;;;;;;;7.24;100.00;103814.38;2014701;71;32890;-72
2022/01/22 23:21:18;;;;;;;74.87;70.17;;;;;;;7.02;100.00;103805.11;2005322;71;32900;-72
2022/01/22 23:27:00;;;;;;;73.40;68.67;;;;;;;6.97;100.00;103804.85;2009970;71;33290;-71
2022/01/22 23:33:03;;;;;;;72.53;67.93;;;;;;;7.03;100.00;103803.21;1996811;71;32887;-70
2022/01/22 23:56:45;;;;;;;69.20;65.00;;;;;;;7.40;100.00;103782.91;2011001;71;33341;-72
